createdAt,value
2016-12-21T00:00:16.658Z,0
2016-12-21T00:01:26.452Z,0
2016-12-21T00:02:35.984Z,0
2016-12-21T00:03:45.856Z,0
2016-12-21T00:04:55.673Z,0
2016-12-21T00:06:05.476Z,0
2016-12-21T00:07:14.946Z,0
2016-12-21T00:08:24.681Z,0
2016-12-21T00:09:34.470Z,0
2016-12-21T00:10:44.459Z,0
2016-12-21T00:11:54.247Z,0
2016-12-21T00:13:04.202Z,0
2016-12-21T00:14:13.973Z,0
2016-12-21T00:15:23.752Z,0
2016-12-21T00:16:33.522Z,0
2016-12-21T00:17:43.010Z,0
2016-12-21T00:18:52.827Z,0
2016-12-21T00:20:02.699Z,0
2016-12-21T00:21:12.516Z,0
2016-12-21T00:22:21.720Z,0
2016-12-21T00:23:31.633Z,0
2016-12-21T00:24:41.490Z,0
2016-12-21T00:25:51.294Z,0
2016-12-21T00:27:01.079Z,0
2016-12-21T00:28:10.565Z,0
2016-12-21T00:29:20.357Z,0
2016-12-21T00:30:30.322Z,0
2016-12-21T00:31:40.109Z,0
2016-12-21T00:32:49.602Z,0
2016-12-21T00:33:59.577Z,0
2016-12-21T00:35:09.396Z,0
2016-12-21T00:36:19.183Z,0
2016-12-21T00:37:28.645Z,0
2016-12-21T00:38:38.423Z,0
2016-12-21T00:39:47.942Z,0
2016-12-21T00:40:57.772Z,0
2016-12-21T00:42:07.579Z,0
2016-12-21T00:43:17.361Z,0
2016-12-21T00:44:27.137Z,0
2016-12-21T00:45:36.706Z,0
2016-12-21T00:46:46.205Z,0
2016-12-21T00:47:55.677Z,0
2016-12-21T00:49:05.195Z,0
2016-12-21T00:50:14.356Z,0
2016-12-21T00:51:23.843Z,0
2016-12-21T00:52:33.308Z,0
2016-12-21T00:53:42.859Z,0
2016-12-21T00:54:52.775Z,0
2016-12-21T00:56:02.380Z,0
2016-12-21T00:57:12.161Z,0
2016-12-21T00:58:21.974Z,0
2016-12-21T00:59:31.491Z,0
2016-12-21T01:00:41.275Z,0
2016-12-21T01:01:50.746Z,0
2016-12-21T01:03:00.531Z,0
2016-12-21T01:04:10.335Z,0
2016-12-21T01:05:19.795Z,0
2016-12-21T01:06:29.481Z,0
2016-12-21T01:07:39.262Z,0
2016-12-21T01:08:48.593Z,0
2016-12-21T01:09:58.397Z,0
2016-12-21T01:11:08.173Z,0
2016-12-21T01:12:17.669Z,0
2016-12-21T01:13:27.478Z,0
2016-12-21T01:14:36.646Z,0
2016-12-21T01:15:46.196Z,0
2016-12-21T01:16:55.972Z,0
2016-12-21T01:18:05.499Z,0
2016-12-21T01:19:15.017Z,0
2016-12-21T01:20:24.173Z,0
2016-12-21T01:21:34.009Z,0
2016-12-21T01:22:43.487Z,0
2016-12-21T01:23:52.979Z,0
2016-12-21T01:25:02.187Z,0
2016-12-21T01:26:12.002Z,0
2016-12-21T01:27:21.785Z,0
2016-12-21T01:28:31.302Z,0
2016-12-21T01:29:41.125Z,0
2016-12-21T01:30:50.905Z,0
2016-12-21T01:32:00.714Z,0
2016-12-21T01:33:10.501Z,0
2016-12-21T01:34:20.273Z,0
2016-12-21T01:35:29.735Z,0
2016-12-21T01:36:39.522Z,0
2016-12-21T01:37:48.995Z,0
2016-12-21T01:38:58.942Z,0
2016-12-21T01:40:08.733Z,0
2016-12-21T01:41:18.587Z,0
2016-12-21T01:42:28.392Z,0
2016-12-21T01:43:38.184Z,0
2016-12-21T01:44:48.008Z,0
2016-12-21T01:45:57.500Z,0
2016-12-21T01:47:07.008Z,0
2016-12-21T01:48:16.809Z,0
2016-12-21T01:49:26.597Z,0
2016-12-21T01:50:36.080Z,0
2016-12-21T01:51:45.967Z,0
2016-12-21T01:52:55.766Z,0
2016-12-21T01:54:05.562Z,0
2016-12-21T01:55:15.053Z,0
2016-12-21T01:56:24.622Z,0
2016-12-21T01:57:33.879Z,0
2016-12-21T01:58:43.724Z,0
2016-12-21T01:59:53.511Z,0
2016-12-21T02:01:02.991Z,0
2016-12-21T02:02:12.769Z,0
2016-12-21T02:03:22.548Z,0
2016-12-21T02:04:32.061Z,0
2016-12-21T02:05:41.238Z,0
2016-12-21T02:06:50.130Z,0
2016-12-21T02:07:59.993Z,0
2016-12-21T02:09:09.791Z,0
2016-12-21T02:10:19.372Z,0
2016-12-21T02:11:28.562Z,0
2016-12-21T02:12:38.371Z,0
2016-12-21T02:13:48.170Z,0
2016-12-21T02:14:57.327Z,0
2016-12-21T02:16:06.859Z,0
2016-12-21T02:17:16.335Z,0
2016-12-21T02:18:25.796Z,0
2016-12-21T02:19:35.583Z,0
2016-12-21T02:20:45.371Z,0
2016-12-21T02:21:54.869Z,0
2016-12-21T02:23:04.351Z,0
2016-12-21T02:24:14.167Z,0
2016-12-21T02:25:23.939Z,0
2016-12-21T02:26:33.870Z,0
2016-12-21T02:27:43.847Z,0
2016-12-21T02:28:53.704Z,0
2016-12-21T02:30:03.211Z,0
2016-12-21T02:31:13.010Z,0
2016-12-21T02:32:22.899Z,0
2016-12-21T02:33:32.370Z,0
2016-12-21T02:34:42.211Z,0
2016-12-21T02:35:51.808Z,0
2016-12-21T02:37:01.605Z,0
2016-12-21T02:38:11.158Z,0
2016-12-21T02:39:21.012Z,0
2016-12-21T02:40:30.552Z,0
2016-12-21T02:41:40.048Z,0
2016-12-21T02:42:49.537Z,0
2016-12-21T02:43:59.346Z,0
2016-12-21T02:45:09.135Z,0
2016-12-21T02:46:19.017Z,0
2016-12-21T02:47:28.816Z,0
2016-12-21T02:48:38.598Z,0
2016-12-21T02:49:48.369Z,0
2016-12-21T02:50:58.162Z,0
2016-12-21T02:52:07.650Z,0
2016-12-21T02:53:17.451Z,0
2016-12-21T02:54:27.297Z,0
2016-12-21T02:55:36.789Z,0
2016-12-21T02:56:46.298Z,0
2016-12-21T02:57:56.131Z,0
2016-12-21T02:59:05.609Z,0
2016-12-21T03:00:15.148Z,0
2016-12-21T03:01:25.040Z,0
2016-12-21T03:02:34.518Z,0
2016-12-21T03:03:44.010Z,0
2016-12-21T03:04:53.540Z,0
2016-12-21T03:06:03.361Z,0
2016-12-21T03:07:12.843Z,0
2016-12-21T03:08:22.308Z,0
2016-12-21T03:09:32.097Z,0
2016-12-21T03:10:41.253Z,0
2016-12-21T03:11:50.733Z,0
2016-12-21T03:13:00.219Z,0
2016-12-21T03:14:09.779Z,0
2016-12-21T03:15:19.356Z,0
2016-12-21T03:16:29.163Z,0
2016-12-21T03:17:38.337Z,0
2016-12-21T03:18:48.228Z,0
2016-12-21T03:19:57.709Z,0
2016-12-21T03:21:07.338Z,0
2016-12-21T03:22:16.807Z,0
2016-12-21T03:23:26.406Z,0
2016-12-21T03:24:35.267Z,0
2016-12-21T03:25:45.066Z,0
2016-12-21T03:26:54.864Z,0
2016-12-21T03:28:04.405Z,0
2016-12-21T03:29:14.215Z,0
2016-12-21T03:30:23.685Z,0
2016-12-21T03:31:33.249Z,0
2016-12-21T03:32:43.029Z,0
2016-12-21T03:33:52.982Z,0
2016-12-21T03:35:02.486Z,0
2016-12-21T03:36:12.356Z,0
2016-12-21T03:37:22.225Z,0
2016-12-21T03:38:32.014Z,0
2016-12-21T03:39:41.818Z,0
2016-12-21T03:40:51.646Z,0
2016-12-21T03:42:01.122Z,0
2016-12-21T03:43:10.896Z,0
2016-12-21T03:44:20.395Z,0
2016-12-21T03:45:29.909Z,0
2016-12-21T03:46:39.390Z,0
2016-12-21T03:47:49.326Z,0
2016-12-21T03:48:59.113Z,0
2016-12-21T03:50:08.602Z,0
2016-12-21T03:51:18.087Z,0
2016-12-21T03:52:27.901Z,0
2016-12-21T03:53:37.104Z,0
2016-12-21T03:54:46.637Z,0
2016-12-21T03:55:56.466Z,0
2016-12-21T03:57:06.267Z,0
2016-12-21T03:58:16.056Z,0
2016-12-21T03:59:25.246Z,0
2016-12-21T04:00:34.724Z,0
2016-12-21T04:01:44.674Z,0
2016-12-21T04:02:54.158Z,0
2016-12-21T04:04:03.943Z,0
2016-12-21T04:05:13.422Z,0
2016-12-21T04:06:23.204Z,0
2016-12-21T04:07:32.390Z,0
2016-12-21T04:08:41.883Z,0
2016-12-21T04:09:51.737Z,0
2016-12-21T04:11:01.217Z,0
2016-12-21T04:12:10.420Z,0
2016-12-21T04:13:20.196Z,0
2016-12-21T04:14:30.011Z,0
2016-12-21T04:15:39.791Z,0
2016-12-21T04:16:49.594Z,0
2016-12-21T04:17:59.364Z,0
2016-12-21T04:19:09.156Z,0
2016-12-21T04:20:18.936Z,0
2016-12-21T04:21:28.718Z,0
2016-12-21T04:22:38.565Z,0
2016-12-21T04:23:48.044Z,0
2016-12-21T04:24:57.838Z,0
2016-12-21T04:26:07.639Z,0
2016-12-21T04:27:16.856Z,0
2016-12-21T04:28:26.343Z,0
2016-12-21T04:29:36.221Z,0
2016-12-21T04:30:46.005Z,0
2016-12-21T04:31:55.806Z,0
2016-12-21T04:33:05.610Z,0
2016-12-21T04:34:15.080Z,0
2016-12-21T04:35:24.570Z,0
2016-12-21T04:36:34.390Z,0
2016-12-21T04:37:43.879Z,0
2016-12-21T04:38:53.428Z,0
2016-12-21T04:40:03.280Z,0
2016-12-21T04:41:12.779Z,0
2016-12-21T04:42:22.247Z,0
2016-12-21T04:43:32.045Z,0
2016-12-21T04:44:41.825Z,0
2016-12-21T04:45:51.656Z,0
2016-12-21T04:47:01.427Z,0
2016-12-21T04:48:10.952Z,0
2016-12-21T04:49:20.732Z,0
2016-12-21T04:50:30.605Z,0
2016-12-21T04:51:40.394Z,0
2016-12-21T04:52:49.876Z,0
2016-12-21T04:53:59.375Z,0
2016-12-21T04:55:09.155Z,0
2016-12-21T04:56:18.971Z,0
2016-12-21T04:57:28.451Z,0
2016-12-21T04:58:37.919Z,0
2016-12-21T04:59:47.761Z,0
2016-12-21T05:00:57.572Z,0
2016-12-21T05:02:07.445Z,0
2016-12-21T05:03:17.262Z,0
2016-12-21T05:04:27.068Z,0
2016-12-21T05:05:36.274Z,0
2016-12-21T05:06:45.773Z,0
2016-12-21T05:07:55.555Z,0
2016-12-21T05:09:04.399Z,0
2016-12-21T05:10:13.866Z,0
2016-12-21T05:11:23.375Z,0
2016-12-21T05:12:33.169Z,0
2016-12-21T05:13:42.652Z,0
2016-12-21T05:14:52.453Z,0
2016-12-21T05:16:01.924Z,0
2016-12-21T05:17:11.090Z,0
2016-12-21T05:18:20.970Z,0
2016-12-21T05:19:30.456Z,0
2016-12-21T05:20:40.273Z,0
2016-12-21T05:21:50.118Z,0
2016-12-21T05:22:59.596Z,0
2016-12-21T05:24:09.387Z,0
2016-12-21T05:25:18.915Z,0
2016-12-21T05:26:28.747Z,0
2016-12-21T05:27:38.632Z,0
2016-12-21T05:28:48.109Z,0
2016-12-21T05:29:57.637Z,0
2016-12-21T05:31:06.794Z,0
2016-12-21T05:32:16.610Z,0
2016-12-21T05:33:25.774Z,0
2016-12-21T05:34:34.941Z,0
2016-12-21T05:35:44.721Z,0
2016-12-21T05:36:54.500Z,0
2016-12-21T05:38:04.289Z,0
2016-12-21T05:39:14.073Z,0
2016-12-21T05:40:23.869Z,0
2016-12-21T05:41:33.346Z,0
2016-12-21T05:42:43.256Z,0
2016-12-21T05:43:52.759Z,0
2016-12-21T05:45:02.299Z,0
2016-12-21T05:46:12.127Z,0
2016-12-21T05:47:21.936Z,0
2016-12-21T05:48:31.423Z,0
2016-12-21T05:49:40.602Z,0
2016-12-21T05:50:50.422Z,0
2016-12-21T05:51:59.899Z,0
2016-12-21T05:53:09.663Z,0
2016-12-21T05:54:19.434Z,0
2016-12-21T05:55:29.218Z,0
2016-12-21T05:56:38.392Z,0
2016-12-21T05:57:48.202Z,0
2016-12-21T05:58:57.691Z,0
2016-12-21T06:00:07.275Z,0
2016-12-21T06:01:16.933Z,0
2016-12-21T06:02:26.760Z,0
2016-12-21T06:03:35.951Z,0
2016-12-21T06:04:45.775Z,0
2016-12-21T06:05:55.605Z,0
2016-12-21T06:07:05.394Z,0
2016-12-21T06:08:00.120Z,0
2016-12-21T06:09:09.955Z,0
2016-12-21T06:10:19.429Z,0
2016-12-21T06:11:28.304Z,0
2016-12-21T06:12:37.773Z,0
2016-12-21T06:13:47.603Z,0
2016-12-21T06:14:57.070Z,0
2016-12-21T06:16:06.953Z,0
2016-12-21T06:17:16.791Z,0
2016-12-21T06:18:26.618Z,0
2016-12-21T06:19:36.084Z,0
2016-12-21T06:20:46.055Z,0
2016-12-21T06:21:55.846Z,0
2016-12-21T06:23:05.331Z,0
2016-12-21T06:24:15.129Z,0
2016-12-21T06:25:24.624Z,0
2016-12-21T06:26:34.142Z,0
2016-12-21T06:27:43.933Z,0
2016-12-21T06:28:53.462Z,0
2016-12-21T06:30:03.357Z,0
2016-12-21T06:31:13.181Z,0
2016-12-21T06:32:22.673Z,0
2016-12-21T06:33:31.842Z,0
2016-12-21T06:34:41.343Z,0
2016-12-21T06:35:51.249Z,4
2016-12-21T06:37:00.752Z,4
2016-12-21T06:38:10.236Z,0
2016-12-21T06:39:19.727Z,4
2016-12-21T06:40:29.285Z,4
2016-12-21T06:41:38.786Z,4
2016-12-21T06:42:48.271Z,0
2016-12-21T06:43:57.759Z,4
2016-12-21T06:45:07.225Z,4
2016-12-21T06:46:16.840Z,8
2016-12-21T06:47:25.694Z,8
2016-12-21T06:48:35.468Z,8
2016-12-21T06:49:45.251Z,8
2016-12-21T06:50:54.737Z,12
2016-12-21T06:52:04.296Z,12
2016-12-21T06:53:13.772Z,16
2016-12-21T06:54:23.562Z,20
2016-12-21T06:55:33.016Z,24
2016-12-21T06:56:42.497Z,28
2016-12-21T06:57:51.988Z,32
2016-12-21T06:59:01.759Z,40
2016-12-21T07:00:11.551Z,48
2016-12-21T07:01:21.382Z,56
2016-12-21T07:02:30.656Z,64
2016-12-21T07:03:40.531Z,72
2016-12-21T07:04:50.371Z,84
2016-12-21T07:05:59.910Z,96
2016-12-21T07:07:09.720Z,108
2016-12-21T07:08:19.689Z,124
2016-12-21T07:09:29.460Z,140
2016-12-21T07:10:38.960Z,156
2016-12-21T07:11:48.760Z,172
2016-12-21T07:12:58.601Z,192
2016-12-21T07:14:08.388Z,216
2016-12-21T07:15:18.223Z,236
2016-12-21T07:16:27.728Z,260
2016-12-21T07:17:36.948Z,288
2016-12-21T07:18:46.778Z,312
2016-12-21T07:19:56.560Z,344
2016-12-21T07:21:06.347Z,372
2016-12-21T07:22:15.208Z,404
2016-12-21T07:23:25.021Z,440
2016-12-21T07:24:34.868Z,472
2016-12-21T07:25:44.644Z,508
2016-12-21T07:26:54.442Z,548
2016-12-21T07:28:04.250Z,588
2016-12-21T07:29:14.145Z,632
2016-12-21T07:30:23.951Z,676
2016-12-21T07:31:33.785Z,716
2016-12-21T07:32:43.283Z,764
2016-12-21T07:33:53.069Z,812
2016-12-21T07:35:02.622Z,864
2016-12-21T07:36:12.574Z,916
2016-12-21T07:37:21.757Z,976
2016-12-21T07:38:31.540Z,1036
2016-12-21T07:39:40.775Z,1092
2016-12-21T07:40:50.603Z,1144
2016-12-21T07:42:00.077Z,1200
2016-12-21T07:43:09.874Z,1256
2016-12-21T07:44:19.656Z,1308
2016-12-21T07:45:29.136Z,1372
2016-12-21T07:46:38.958Z,1444
2016-12-21T07:47:48.431Z,1520
2016-12-21T07:48:58.231Z,1600
2016-12-21T07:50:07.703Z,1676
2016-12-21T07:51:17.636Z,1736
2016-12-21T07:52:27.407Z,1808
2016-12-21T07:53:36.903Z,1884
2016-12-21T07:54:46.372Z,1948
2016-12-21T07:55:56.255Z,2040
2016-12-21T07:57:06.030Z,2124
2016-12-21T07:58:15.829Z,2228
2016-12-21T07:59:25.610Z,2328
2016-12-21T08:00:35.079Z,2464
2016-12-21T08:01:44.879Z,2604
2016-12-21T08:02:54.362Z,2692
2016-12-21T08:04:04.187Z,2740
2016-12-21T08:05:13.991Z,2788
2016-12-21T08:06:23.775Z,2904
2016-12-21T08:07:33.268Z,2988
2016-12-21T08:08:43.042Z,3036
2016-12-21T08:09:52.600Z,3108
2016-12-21T08:11:02.119Z,3204
2016-12-21T08:12:11.942Z,3384
2016-12-21T08:13:21.435Z,3476
2016-12-21T08:14:31.239Z,3572
2016-12-21T08:15:40.728Z,3752
2016-12-21T08:16:49.891Z,4024
2016-12-21T08:17:59.397Z,4056
2016-12-21T08:19:09.169Z,4064
2016-12-21T08:20:19.164Z,4132
2016-12-21T08:21:28.668Z,4272
2016-12-21T08:22:38.447Z,4364
2016-12-21T08:23:47.964Z,4612
2016-12-21T08:24:57.458Z,4656
2016-12-21T08:26:06.951Z,4736
2016-12-21T08:27:16.864Z,4824
2016-12-21T08:28:26.712Z,4932
2016-12-21T08:29:36.272Z,5220
2016-12-21T08:30:45.749Z,4960
2016-12-21T08:31:55.538Z,4880
2016-12-21T08:33:05.033Z,5128
2016-12-21T08:34:15.014Z,5384
2016-12-21T08:35:24.818Z,5588
2016-12-21T08:36:34.435Z,5396
2016-12-21T08:37:43.934Z,5320
2016-12-21T08:38:53.115Z,5800
2016-12-21T08:40:02.625Z,6124
2016-12-21T08:41:12.400Z,6584
2016-12-21T08:42:21.576Z,7224
2016-12-21T08:43:31.362Z,7100
2016-12-21T08:44:41.134Z,7052
2016-12-21T08:45:50.293Z,7280
2016-12-21T08:47:00.098Z,7512
2016-12-21T08:48:09.962Z,6464
2016-12-21T08:49:19.806Z,6032
2016-12-21T08:50:29.294Z,7064
2016-12-21T08:51:38.794Z,7608
2016-12-21T08:52:47.691Z,8128
2016-12-21T08:53:57.494Z,8884
2016-12-21T08:55:07.149Z,7288
2016-12-21T08:56:16.633Z,6012
2016-12-21T08:57:26.167Z,7252
2016-12-21T08:58:35.670Z,7096
2016-12-21T08:59:45.152Z,7412
2016-12-21T09:00:55.263Z,7176
2016-12-21T09:02:04.757Z,6968
2016-12-21T09:03:14.677Z,6740
2016-12-21T09:04:23.848Z,6424
2016-12-21T09:05:33.016Z,6764
2016-12-21T09:06:42.822Z,6992
2016-12-21T09:07:52.771Z,6948
2016-12-21T09:09:02.247Z,6976
2016-12-21T09:10:11.445Z,7120
2016-12-21T09:11:21.253Z,7208
2016-12-21T09:12:31.062Z,7288
2016-12-21T09:13:40.842Z,7316
2016-12-21T09:14:50.367Z,7272
2016-12-21T09:16:00.216Z,7176
2016-12-21T09:17:10.063Z,7184
2016-12-21T09:18:19.887Z,7284
2016-12-21T09:19:29.676Z,7300
2016-12-21T09:20:39.487Z,7248
2016-12-21T09:21:49.309Z,7304
2016-12-21T09:22:58.784Z,7436
2016-12-21T09:24:08.321Z,7360
2016-12-21T09:25:18.125Z,7280
2016-12-21T09:26:27.623Z,7332
2016-12-21T09:27:37.611Z,7444
2016-12-21T09:28:47.100Z,7520
2016-12-21T09:29:56.298Z,7620
2016-12-21T09:31:05.795Z,7780
2016-12-21T09:32:15.389Z,7940
2016-12-21T09:33:25.184Z,7960
2016-12-21T09:34:34.416Z,7980
2016-12-21T09:35:43.954Z,8060
2016-12-21T09:36:53.854Z,8112
2016-12-21T09:38:03.654Z,8260
2016-12-21T09:39:13.467Z,8344
2016-12-21T09:40:23.273Z,8412
2016-12-21T09:41:32.763Z,8260
2016-12-21T09:42:42.563Z,8244
2016-12-21T09:43:52.145Z,8256
2016-12-21T09:45:01.965Z,8320
2016-12-21T09:46:11.780Z,8420
2016-12-21T09:47:21.289Z,8636
2016-12-21T09:48:31.118Z,8656
2016-12-21T09:49:40.922Z,8836
2016-12-21T09:50:50.770Z,8960
2016-12-21T09:52:00.574Z,9116
2016-12-21T09:53:10.420Z,9328
2016-12-21T09:54:20.205Z,9296
2016-12-21T09:55:29.768Z,9000
2016-12-21T09:56:39.624Z,8288
2016-12-21T09:57:49.098Z,8520
2016-12-21T09:58:58.619Z,9488
2016-12-21T10:00:08.565Z,9720
2016-12-21T10:01:18.031Z,9868
2016-12-21T10:02:27.540Z,10324
2016-12-21T10:03:37.339Z,11648
2016-12-21T10:04:46.902Z,13700
2016-12-21T10:05:56.412Z,13560
2016-12-21T10:07:05.582Z,13168
2016-12-21T10:08:15.553Z,12824
2016-12-21T10:09:25.371Z,12836
2016-12-21T10:10:34.569Z,11940
2016-12-21T10:11:44.372Z,20768
2016-12-21T10:12:53.887Z,28320
2016-12-21T10:14:03.394Z,30560
2016-12-21T10:15:12.946Z,31648
2016-12-21T10:16:22.765Z,32160
2016-12-21T10:17:32.629Z,32704
2016-12-21T10:18:42.433Z,34656
2016-12-21T10:19:52.345Z,33216
2016-12-21T10:21:02.164Z,33120
2016-12-21T10:22:11.333Z,34496
2016-12-21T10:23:21.195Z,33440
2016-12-21T10:24:31.065Z,34944
2016-12-21T10:25:40.644Z,34400
2016-12-21T10:26:50.424Z,33824
2016-12-21T10:27:59.585Z,34144
2016-12-21T10:29:09.235Z,32672
2016-12-21T10:30:19.034Z,31648
2016-12-21T10:31:28.608Z,29920
2016-12-21T10:32:38.394Z,30144
2016-12-21T10:33:48.221Z,32896
2016-12-21T10:34:57.417Z,31968
2016-12-21T10:36:06.989Z,34048
2016-12-21T10:37:16.469Z,33056
2016-12-21T10:38:26.292Z,33056
2016-12-21T10:39:36.220Z,35616
2016-12-21T10:40:46.007Z,35072
2016-12-21T10:41:55.489Z,32864
2016-12-21T10:43:05.080Z,32864
2016-12-21T10:44:14.875Z,32288
2016-12-21T10:45:24.727Z,24864
2016-12-21T10:46:34.219Z,18720
2016-12-21T10:47:43.700Z,17376
2016-12-21T10:48:53.265Z,16256
2016-12-21T10:50:02.748Z,16256
2016-12-21T10:51:12.571Z,16320
2016-12-21T10:52:22.440Z,16768
2016-12-21T10:53:32.281Z,27584
2016-12-21T10:54:42.134Z,35040
2016-12-21T10:55:52.008Z,34304
2016-12-21T10:57:01.506Z,35616
2016-12-21T10:58:11.320Z,35264
2016-12-21T10:59:21.110Z,33600
2016-12-21T11:00:29.972Z,37792
2016-12-21T11:01:39.149Z,38624
2016-12-21T11:02:48.977Z,36064
2016-12-21T11:03:58.558Z,38144
2016-12-21T11:05:08.347Z,37760
2016-12-21T11:06:18.167Z,37696
2016-12-21T11:07:27.969Z,33472
2016-12-21T11:08:37.786Z,33952
2016-12-21T11:09:47.599Z,36864
2016-12-21T11:10:57.148Z,34912
2016-12-21T11:12:07.030Z,33696
2016-12-21T11:13:16.820Z,32832
2016-12-21T11:14:26.318Z,29088
2016-12-21T11:15:35.859Z,26688
2016-12-21T11:16:45.712Z,26336
2016-12-21T11:17:55.209Z,24288
2016-12-21T11:19:05.064Z,22272
2016-12-21T11:20:14.561Z,20896
2016-12-21T11:21:24.419Z,18976
2016-12-21T11:22:34.226Z,16832
2016-12-21T11:23:43.726Z,16000
2016-12-21T11:24:53.233Z,16160
2016-12-21T11:26:02.765Z,15300
2016-12-21T11:27:12.602Z,14384
2016-12-21T11:28:22.129Z,13428
2016-12-21T11:29:31.695Z,12720
2016-12-21T11:30:41.495Z,12568
2016-12-21T11:31:51.292Z,12000
2016-12-21T11:33:01.117Z,10068
2016-12-21T11:34:10.930Z,9472
2016-12-21T11:35:20.127Z,11744
2016-12-21T11:36:29.966Z,11900
2016-12-21T11:37:39.450Z,11512
2016-12-21T11:38:49.011Z,11192
2016-12-21T11:39:58.721Z,11056
2016-12-21T11:41:08.613Z,11152
2016-12-21T11:42:18.485Z,11312
2016-12-21T11:43:28.335Z,11312
2016-12-21T11:44:37.897Z,11224
2016-12-21T11:45:47.734Z,11208
2016-12-21T11:46:57.633Z,11020
2016-12-21T11:48:07.428Z,11032
2016-12-21T11:49:17.214Z,10724
2016-12-21T11:50:27.081Z,10936
2016-12-21T11:51:36.563Z,10892
2016-12-21T11:52:46.380Z,10428
2016-12-21T11:53:56.228Z,10540
2016-12-21T11:55:05.445Z,10548
2016-12-21T11:56:15.255Z,9968
2016-12-21T11:57:24.730Z,10172
2016-12-21T11:58:34.541Z,10244
2016-12-21T11:59:43.761Z,10332
2016-12-21T12:00:53.590Z,10484
2016-12-21T12:02:03.074Z,10484
2016-12-21T12:03:12.640Z,10472
2016-12-21T12:04:22.427Z,10528
2016-12-21T12:05:32.226Z,10784
2016-12-21T12:06:42.068Z,10872
2016-12-21T12:07:51.655Z,10776
2016-12-21T12:09:01.142Z,10836
2016-12-21T12:10:10.699Z,10736
2016-12-21T12:11:20.496Z,10576
2016-12-21T12:12:30.319Z,10164
2016-12-21T12:13:40.115Z,9936
2016-12-21T12:14:49.601Z,9944
2016-12-21T12:15:59.432Z,10312
2016-12-21T12:17:09.256Z,10640
2016-12-21T12:18:19.115Z,10432
2016-12-21T12:19:28.930Z,10192
2016-12-21T12:20:38.422Z,10044
2016-12-21T12:21:48.299Z,9812
2016-12-21T12:22:58.244Z,9492
2016-12-21T12:24:08.046Z,9336
2016-12-21T12:25:17.531Z,9496
2016-12-21T12:26:59.203Z,9296
2016-12-21T12:28:08.996Z,9096
2016-12-21T12:29:18.862Z,8628
2016-12-21T12:30:28.688Z,8244
2016-12-21T12:31:38.232Z,9020
2016-12-21T12:32:48.094Z,9392
2016-12-21T12:33:57.732Z,9152
2016-12-21T12:35:06.956Z,9424
2016-12-21T12:36:16.485Z,9588
2016-12-21T12:37:25.971Z,9548
2016-12-21T12:38:35.456Z,9556
2016-12-21T12:39:44.949Z,9364
2016-12-21T12:40:54.457Z,9544
2016-12-21T12:42:04.278Z,9460
2016-12-21T12:43:14.087Z,9188
2016-12-21T12:44:23.260Z,9028
2016-12-21T12:45:32.774Z,8664
2016-12-21T12:46:42.581Z,8456
2016-12-21T12:47:52.103Z,8448
2016-12-21T12:49:02.891Z,8184
2016-12-21T12:50:12.704Z,7904
2016-12-21T12:51:22.360Z,8168
2016-12-21T12:52:31.839Z,8204
2016-12-21T12:53:41.758Z,8076
2016-12-21T12:54:50.974Z,7864
2016-12-21T12:56:00.815Z,7716
2016-12-21T12:57:10.626Z,7664
2016-12-21T12:58:20.122Z,7400
2016-12-21T12:59:29.291Z,7552
2016-12-21T13:00:38.932Z,7688
2016-12-21T13:01:48.414Z,7344
2016-12-21T13:02:57.920Z,6924
2016-12-21T13:04:07.807Z,6856
2016-12-21T13:05:17.677Z,6984
2016-12-21T13:06:26.912Z,6980
2016-12-21T13:07:36.725Z,7072
2016-12-21T13:08:46.234Z,7148
2016-12-21T13:09:55.763Z,7104
2016-12-21T13:11:05.252Z,7228
2016-12-21T13:12:15.038Z,7104
2016-12-21T13:13:24.530Z,6828
2016-12-21T13:14:34.019Z,6696
2016-12-21T13:15:43.510Z,6592
2016-12-21T13:16:52.676Z,6444
2016-12-21T13:18:02.209Z,6336
2016-12-21T13:19:11.386Z,6248
2016-12-21T13:20:21.278Z,6104
2016-12-21T13:21:30.778Z,6044
2016-12-21T13:22:40.567Z,5788
2016-12-21T13:23:50.043Z,5800
2016-12-21T13:24:59.918Z,5972
2016-12-21T13:26:09.758Z,6016
2016-12-21T13:27:19.560Z,5952
2016-12-21T13:28:29.375Z,5864
2016-12-21T13:29:39.182Z,5720
2016-12-21T13:30:48.971Z,5652
2016-12-21T13:31:58.452Z,5600
2016-12-21T13:33:07.927Z,5608
2016-12-21T13:34:17.452Z,5528
2016-12-21T13:35:26.957Z,5472
2016-12-21T13:36:36.745Z,5372
2016-12-21T13:37:46.257Z,5144
2016-12-21T13:38:56.070Z,4956
2016-12-21T13:40:05.863Z,4876
2016-12-21T13:41:15.083Z,4928
2016-12-21T13:42:24.599Z,4984
2016-12-21T13:43:34.416Z,4972
2016-12-21T13:44:44.286Z,4940
2016-12-21T13:45:53.789Z,4832
2016-12-21T13:47:03.590Z,4720
2016-12-21T13:48:13.421Z,4688
2016-12-21T13:49:22.588Z,4624
2016-12-21T13:50:32.063Z,4616
2016-12-21T13:51:41.939Z,4548
2016-12-21T13:52:51.444Z,4464
2016-12-21T13:54:00.976Z,4340
2016-12-21T13:55:10.462Z,4212
2016-12-21T13:56:19.997Z,4176
2016-12-21T13:57:29.795Z,4160
2016-12-21T13:58:39.632Z,4088
2016-12-21T13:59:49.465Z,4000
2016-12-21T14:00:59.305Z,3904
2016-12-21T14:02:08.493Z,3756
2016-12-21T14:03:17.990Z,3644
2016-12-21T14:04:27.781Z,3556
2016-12-21T14:05:37.645Z,3428
2016-12-21T14:06:47.153Z,3244
2016-12-21T14:07:57.006Z,3200
2016-12-21T14:09:06.484Z,3224
2016-12-21T14:10:15.648Z,3100
2016-12-21T14:11:25.478Z,3036
2016-12-21T14:12:35.256Z,2964
2016-12-21T14:13:44.738Z,2908
2016-12-21T14:14:54.558Z,2828
2016-12-21T14:16:04.369Z,2756
2016-12-21T14:17:14.187Z,2656
2016-12-21T14:18:23.699Z,2560
2016-12-21T14:19:33.183Z,2484
2016-12-21T14:20:42.396Z,2388
2016-12-21T14:21:52.323Z,2304
2016-12-21T14:23:01.808Z,2260
2016-12-21T14:24:11.283Z,2216
2016-12-21T14:25:21.114Z,2148
2016-12-21T14:26:30.598Z,2048
2016-12-21T14:27:40.423Z,1932
2016-12-21T14:28:49.904Z,1848
2016-12-21T14:29:59.391Z,1820
2016-12-21T14:31:09.205Z,1768
2016-12-21T14:32:19.056Z,1704
2016-12-21T14:33:28.858Z,1620
2016-12-21T14:34:38.352Z,1532
2016-12-21T14:35:47.856Z,1452
2016-12-21T14:36:57.349Z,1392
2016-12-21T14:38:07.310Z,1336
2016-12-21T14:39:16.479Z,1272
2016-12-21T14:40:26.287Z,1208
2016-12-21T14:41:36.101Z,1148
2016-12-21T14:42:45.655Z,1092
2016-12-21T14:43:54.886Z,1052
2016-12-21T14:45:04.390Z,996
2016-12-21T14:46:13.897Z,940
2016-12-21T14:47:23.684Z,884
2016-12-21T14:48:32.942Z,832
2016-12-21T14:49:41.798Z,780
2016-12-21T14:50:51.611Z,732
2016-12-21T14:52:00.807Z,692
2016-12-21T14:53:10.030Z,648
2016-12-21T14:54:19.834Z,604
2016-12-21T14:55:29.486Z,568
2016-12-21T14:56:39.263Z,528
2016-12-21T14:57:49.213Z,492
2016-12-21T14:58:59.057Z,456
2016-12-21T15:00:08.848Z,428
2016-12-21T15:01:18.660Z,392
2016-12-21T15:02:28.470Z,368
2016-12-21T15:03:38.304Z,340
2016-12-21T15:04:48.124Z,312
2016-12-21T15:05:58.097Z,288
2016-12-21T15:07:07.603Z,264
2016-12-21T15:08:17.129Z,244
2016-12-21T15:09:26.321Z,224
2016-12-21T15:10:35.846Z,200
2016-12-21T15:11:45.336Z,184
2016-12-21T15:12:54.836Z,164
2016-12-21T15:14:04.330Z,144
2016-12-21T15:15:13.843Z,132
2016-12-21T15:16:23.644Z,116
2016-12-21T15:17:33.145Z,100
2016-12-21T15:18:42.610Z,88
2016-12-21T15:19:52.463Z,76
2016-12-21T15:21:01.949Z,68
2016-12-21T15:22:11.740Z,60
2016-12-21T15:23:21.559Z,52
2016-12-21T15:24:31.418Z,44
2016-12-21T15:25:40.928Z,36
2016-12-21T15:26:50.148Z,32
2016-12-21T15:27:59.966Z,24
2016-12-21T15:29:09.893Z,24
2016-12-21T15:30:19.387Z,16
2016-12-21T15:31:29.268Z,16
2016-12-21T15:32:38.793Z,16
2016-12-21T15:33:48.296Z,12
2016-12-21T15:34:57.799Z,8
2016-12-21T15:36:07.615Z,8
2016-12-21T15:37:16.803Z,8
2016-12-21T15:38:26.586Z,8
2016-12-21T15:39:36.100Z,4
2016-12-21T15:40:45.274Z,4
2016-12-21T15:41:54.445Z,0
2016-12-21T15:43:03.737Z,0
2016-12-21T15:44:12.956Z,4
2016-12-21T15:45:22.736Z,4
2016-12-21T15:46:32.560Z,0
2016-12-21T15:47:42.033Z,0
2016-12-21T15:48:51.859Z,0
2016-12-21T15:50:01.078Z,0
2016-12-21T15:51:10.911Z,0
2016-12-21T15:52:20.710Z,0
2016-12-21T15:53:30.626Z,0
2016-12-21T15:54:40.455Z,0
2016-12-21T15:55:50.336Z,0
2016-12-21T15:57:00.157Z,0
2016-12-21T15:58:09.991Z,0
2016-12-21T15:59:18.866Z,0
2016-12-21T16:00:28.080Z,0
2016-12-21T16:01:37.882Z,0
2016-12-21T16:02:47.079Z,0
2016-12-21T16:03:56.854Z,0
2016-12-21T16:05:06.637Z,0
2016-12-21T16:06:16.507Z,0
2016-12-21T16:07:26.054Z,0
2016-12-21T16:08:35.849Z,0
2016-12-21T16:09:45.638Z,0
2016-12-21T16:10:54.822Z,0
2016-12-21T16:12:04.715Z,0